CheckWX is a tool to help pilots better visualize weather data.  It is not intended as a substitute for an official pre-flight weather briefing.

08:04:36 UTC

KMIV TAF
Millville Municipal Airport
Millville, New Jersey, USA
KMIV 200530Z 2006/2106 00000KT P6SM BKN250 FM200800 00000KT 6SM BR BKN250 TEMPO 2008/2012 3SM BR SCT010 FM201300 VRB03KT P6SM SCT070 FM201800 16005KT P6SM BKN060 PROB30 2021/2024 4SM TSRA OVC025CB FM210000 VRB04KT P6SM BKN060 FM210400 VRB04KT 5SM BR BKN050

Aug-20@
06:00 UTC

Aug-20 @ 06:00 UTC

Aug-20@
08:00 UTC

Aug-20 @ 08:00 UTC

KMIV 200530Z 2006/2106 00000KT P6SM BKN250

Expired

Cloud Levels
  • Broken at 25,000' AGL

Aug-20@
08:00 UTC

Aug-20 @ 08:00 UTC

Aug-20@
12:00 UTC

Aug-20 @ 12:00 UTC

TEMPO 2008/2012 3SM BR SCT010

Temporary

Temporary Changes expected for less than half the time period

Conditions
Mist
Cloud Levels
  • Scattered at 1,000' AGL

Aug-20@
08:00 UTC

Aug-20 @ 08:00 UTC

Aug-20@
13:00 UTC

Aug-20 @ 13:00 UTC

FM200800 00000KT 6SM BR BKN250

From

From Standard forecast or significant change

Conditions
Mist
Cloud Levels
  • Broken at 25,000' AGL

Aug-20@
13:00 UTC

Aug-20 @ 13:00 UTC

Aug-20@
18:00 UTC

Aug-20 @ 18:00 UTC

FM201300 VRB03KT P6SM SCT070

From

From Standard forecast or significant change

Wind
  • Variable at 3 KTS
Cloud Levels
  • Scattered at 7,000' AGL

Aug-20@
18:00 UTC

Aug-20 @ 18:00 UTC

Aug-21@
00:00 UTC

Aug-21 @ 00:00 UTC

FM201800 16005KT P6SM BKN060

From

From Standard forecast or significant change

Wind
  • 160° at 5 KTS
Cloud Levels
  • Broken at 6,000' AGL

Aug-20@
21:00 UTC

Aug-20 @ 21:00 UTC

Aug-21@
00:00 UTC

Aug-21 @ 00:00 UTC

PROB30 2021/2024 4SM TSRA OVC025CB

Probable - 30% Likelihood

Probable - 30% Likelihood during this time.

Conditions
Thunderstorm, Rain
Cloud Levels
  • Overcast at 2,500' AGL

Aug-21@
00:00 UTC

Aug-21 @ 00:00 UTC

Aug-21@
04:00 UTC

Aug-21 @ 04:00 UTC

FM210000 VRB04KT P6SM BKN060

From

From Standard forecast or significant change

Wind
  • Variable at 4 KTS
Cloud Levels
  • Broken at 6,000' AGL

Aug-21@
04:00 UTC

Aug-21 @ 04:00 UTC

Aug-21@
06:00 UTC

Aug-21 @ 06:00 UTC

FM210400 VRB04KT 5SM BR BKN050

From

From Standard forecast or significant change

Wind
  • Variable at 4 KTS
Conditions
Mist
Cloud Levels
  • Broken at 5,000' AGL